Time;durP1;ratioP1;P1;durP2;ratioP2;P2;SDS_P1;SDS_P2;PMS_P1;PMS_P2;Temp;Humidity;BMP_temperature;BMP_pressure;BME280_temperature;BME280_humidity;BME280_pressure;Samples;Min_cycle;Max_cycle;Signal;HPM_P1;HPM_P2
2024/02/26 00:00:37;;;;;;;;;83.25;60.25;;;;;-143.90;100.00;75612.59;4962905;28;102658;-74
2024/02/26 00:03:04;;;;;;;;;73.75;58.00;;;;;-143.90;100.00;75610.53;4963152;28;103450;-74
2024/02/26 00:05:31;;;;;;;;;74.00;56.00;;;;;-143.90;100.00;75610.53;4955435;28;101755;-75
2024/02/26 00:07:58;;;;;;;;;69.00;53.00;;;;;-143.90;100.00;75596.06;4964326;28;101897;-75
2024/02/26 00:10:28;;;;;;;;;47.00;39.33;;;;;-143.90;100.00;75594.00;4963740;28;102290;-75
2024/02/26 00:12:55;;;;;;;;;52.33;41.00;;;;;-143.90;100.00;75598.13;4962828;28;103505;-75
2024/02/26 00:15:22;;;;;;;;;60.67;48.00;;;;;-143.90;100.00;75596.06;4950773;28;105293;-74
2024/02/26 00:17:49;;;;;;;;;44.67;39.33;;;;;-143.90;100.00;75596.06;4959485;28;101849;-75
2024/02/26 00:20:15;;;;;;;;;42.00;35.00;;;;;-143.90;100.00;75598.13;4955988;28;101761;-76
2024/02/26 00:22:42;;;;;;;;;45.00;40.00;;;;;-143.90;100.00;75604.34;4959764;28;103709;-75
2024/02/26 00:25:09;;;;;;;;;40.33;35.33;;;;;-143.90;100.00;75606.41;4956864;28;101584;-76
2024/02/26 00:27:35;;;;;;;;;47.00;36.33;;;;;-143.90;100.00;75622.94;4957181;28;101643;-75
2024/02/26 00:30:02;;;;;;;;;51.33;40.00;;;;;-143.90;100.00;75627.06;4959003;28;101760;-75
2024/02/26 00:32:29;;;;;;;;;46.33;34.00;;;;;-143.90;100.00;75637.41;4959107;28;103477;-76
2024/02/26 00:34:56;;;;;;;;;61.33;43.33;;;;;-143.90;100.00;75627.06;4954669;28;102222;-76
2024/02/26 00:37:23;;;;;;;;;49.67;40.00;;;;;-143.90;100.00;75639.47;4952334;28;102236;-75
2024/02/26 00:39:49;;;;;;;;;41.67;36.33;;;;;-143.90;100.00;75660.16;4960008;28;102077;-75
2024/02/26 00:42:16;;;;;;;;;63.33;51.00;;;;;-143.90;100.00;75676.69;4961937;28;106496;-76
2024/02/26 00:44:43;;;;;;;;;61.00;46.00;;;;;-143.90;100.00;75664.28;4955637;28;102402;-76
2024/02/26 00:47:09;;;;;;;;;62.33;44.33;;;;;-143.90;100.00;75676.69;4946429;28;101994;-76
2024/02/26 00:49:37;;;;;;;;;51.67;43.00;;;;;-143.90;100.00;75676.69;4945230;28;101886;-75
2024/02/26 00:52:04;;;;;;;;;44.67;40.67;;;;;-143.90;100.00;75668.44;4963700;28;103430;-76
2024/02/26 00:54:31;;;;;;;;;61.00;43.33;;;;;-143.90;100.00;75682.91;4949194;28;102138;-76
2024/02/26 00:56:57;;;;;;;;;64.00;45.00;;;;;-143.90;100.00;75693.25;4956198;28;101587;-75
2024/02/26 00:59:24;;;;;;;;;55.00;42.67;;;;;-143.90;100.00;75699.44;4952673;28;102016;-75
2024/02/26 01:01:51;;;;;;;;;39.67;34.00;;;;;-143.90;100.00;75705.66;4954333;28;103460;-75
2024/02/26 01:04:17;;;;;;;;;60.33;40.67;;;;;-143.90;100.00;75713.91;4956685;28;101858;-75
2024/02/26 01:06:44;;;;;;;;;44.33;36.00;;;;;-143.90;100.00;75707.72;4949580;28;102247;-75
2024/02/26 01:09:11;;;;;;;;;32.00;28.00;;;;;-143.90;100.00;75703.56;4959638;28;101871;-75
2024/02/26 01:11:37;;;;;;;;;40.67;35.67;;;;;-143.90;100.00;75693.25;4956474;28;103424;-75
2024/02/26 01:14:04;;;;;;;;;34.00;30.67;;;;;-143.90;100.00;75701.50;4960799;28;102124;-75
2024/02/26 01:16:31;;;;;;;;;30.33;24.33;;;;;-143.90;100.00;75693.25;4957852;28;102884;-75
2024/02/26 01:18:58;;;;;;;;;30.00;24.00;;;;;-143.90;100.00;75689.09;4958881;28;101549;-75
2024/02/26 01:21:26;;;;;;;;;39.00;31.67;;;;;-143.90;100.00;75695.31;4949152;28;104389;-75
2024/02/26 01:23:53;;;;;;;;;56.33;43.00;;;;;-143.90;100.00;75693.25;4960030;28;102623;-75
2024/02/26 01:26:21;;;;;;;;;81.50;62.25;;;;;-143.90;100.00;75697.38;4958350;28;101669;-75
2024/02/26 01:28:48;;;;;;;;;96.25;68.25;;;;;-143.90;100.00;75693.25;4963413;28;102129;-75
2024/02/26 01:31:15;;;;;;;;;74.50;57.00;;;;;-143.90;100.00;75699.44;4952155;28;103398;-75
2024/02/26 01:33:42;;;;;;;;;77.50;59.25;;;;;-143.90;100.00;75697.38;4958757;28;104756;-75
2024/02/26 01:36:09;;;;;;;;;66.67;53.67;;;;;-143.90;100.00;75699.44;4955032;28;101576;-75
2024/02/26 01:38:35;;;;;;;;;62.67;49.00;;;;;-143.90;100.00;75701.50;4958575;28;101890;-75
2024/02/26 01:41:02;;;;;;;;;54.33;42.67;;;;;-143.90;100.00;75697.38;4961339;28;108878;-75
2024/02/26 01:43:29;;;;;;;;;43.00;38.67;;;;;-143.90;100.00;75695.31;4955017;28;101900;-75
2024/02/26 01:45:56;;;;;;;;;34.67;31.33;;;;;-143.90;100.00;75699.44;4958018;28;101848;-75
2024/02/26 01:48:23;;;;;;;;;45.67;39.33;;;;;-143.90;100.00;75697.38;4960934;28;101482;-75
2024/02/26 01:50:50;;;;;;;;;41.00;37.00;;;;;-143.90;100.00;75689.09;4960419;28;103352;-75
2024/02/26 01:53:18;;;;;;;;;30.33;25.33;;;;;-143.90;100.00;75691.16;4945324;28;104094;-75
2024/02/26 01:55:45;;;;;;;;;38.00;32.33;;;;;-143.90;100.00;75697.38;4956183;28;101979;-75
2024/02/26 01:58:13;;;;;;;;;65.00;51.00;;;;;-143.90;100.00;75703.56;4959253;28;103963;-74
2024/02/26 02:00:40;;;;;;;;;61.33;48.00;;;;;-143.90;100.00;75722.19;4956824;28;103486;-74
2024/02/26 02:03:07;;;;;;;;;46.00;40.00;;;;;-143.90;100.00;75726.31;4943192;28;105277;-74
2024/02/26 02:05:41;;;;;;;;;50.67;41.00;;;;;-143.90;100.00;75726.31;4967025;28;101647;-75
2024/02/26 02:08:20;;;;;;;;;46.67;43.33;;;;;-143.90;100.00;75734.59;4949264;28;102417;-74
2024/02/26 02:10:49;;;;;;;;;41.33;37.33;;;;;-143.90;100.00;75740.78;4957005;28;103765;-75
2024/02/26 02:13:16;;;;;;;;;43.67;37.00;;;;;-143.90;100.00;75740.78;4953259;28;102147;-75
2024/02/26 02:15:43;;;;;;;;;39.00;33.00;;;;;-143.90;100.00;75751.13;4959619;28;101875;-75
2024/02/26 02:18:10;;;;;;;;;48.33;41.33;;;;;-143.90;100.00;75755.28;4961034;28;102025;-75
2024/02/26 02:20:37;;;;;;;;;46.00;37.00;;;;;-143.90;100.00;75742.88;4947119;28;107042;-75
2024/02/26 02:23:03;;;;;;;;;45.00;32.00;;;;;-143.90;100.00;75747.00;4961031;28;101868;-75
2024/02/26 02:25:30;;;;;;;;;49.00;41.67;;;;;-143.90;100.00;75747.00;4951775;28;101900;-75
2024/02/26 02:27:57;;;;;;;;;45.67;39.33;;;;;-143.90;100.00;75755.28;4960151;28;102101;-75
2024/02/26 02:30:27;;;;;;;;;36.33;32.00;;;;;-143.90;100.00;75767.69;4956667;28;103616;-75
2024/02/26 02:32:56;;;;;;;;;45.00;33.00;;;;;-143.90;100.00;75767.69;4954731;28;102609;-75
2024/02/26 02:35:23;;;;;;;;;64.67;46.33;;;;;-143.90;100.00;75775.94;4942004;28;102291;-75
2024/02/26 02:37:52;;;;;;;;;46.67;39.33;;;;;-143.90;100.00;75784.22;4940358;28;101943;-75
2024/02/26 02:40:19;;;;;;;;;48.33;37.00;;;;;-143.90;100.00;75786.28;4952540;28;103414;-75
2024/02/26 02:42:45;;;;;;;;;31.67;21.33;;;;;-143.90;100.00;75771.81;4956458;28;102101;-75
2024/02/26 02:45:12;;;;;;;;;31.67;27.00;;;;;-143.90;100.00;75773.88;4951954;28;102198;-75
2024/02/26 02:47:39;;;;;;;;;44.00;35.67;;;;;-143.90;100.00;75786.28;4957156;28;101662;-75
2024/02/26 02:50:06;;;;;;;;;41.67;29.33;;;;;-143.90;100.00;75780.09;4958774;28;103252;-75
2024/02/26 02:52:33;;;;;;;;;60.67;46.33;;;;;-143.90;100.00;75782.16;4961358;28;101923;-75
2024/02/26 02:54:59;;;;;;;;;50.00;41.33;;;;;-143.90;100.00;75782.16;4958630;28;101439;-75
2024/02/26 02:57:26;;;;;;;;;54.00;44.00;;;;;-143.90;100.00;75782.16;4950258;28;102144;-75
2024/02/26 02:59:53;;;;;;;;;68.00;50.75;;;;;-143.90;100.00;75792.50;4961800;28;103689;-75
2024/02/26 03:02:19;;;;;;;;;54.67;45.33;;;;;-143.90;100.00;75784.22;4952378;28;102370;-75
2024/02/26 03:04:46;;;;;;;;;52.33;42.00;;;;;-143.90;100.00;75778.00;4962329;28;101633;-75
2024/02/26 03:07:13;;;;;;;;;47.00;37.67;;;;;-143.90;100.00;75773.88;4958206;28;103783;-74
2024/02/26 03:09:40;;;;;;;;;47.67;42.33;;;;;-143.90;100.00;75765.59;4951921;28;103922;-76
2024/02/26 03:12:07;;;;;;;;;38.00;35.33;;;;;-143.90;100.00;75763.53;4965235;28;101766;-76
2024/02/26 03:14:34;;;;;;;;;48.33;41.00;;;;;-143.90;100.00;75769.75;4966643;28;101720;-74
2024/02/26 03:17:01;;;;;;;;;64.67;48.67;;;;;-143.90;100.00;75775.94;4965112;28;102131;-74
2024/02/26 03:19:27;;;;;;;;;69.25;52.75;;;;;-143.90;100.00;75780.09;4953858;28;103574;-77
2024/02/26 03:21:54;;;;;;;;;56.33;41.00;;;;;-143.90;100.00;75771.81;4960718;28;102153;-75
2024/02/26 03:24:21;;;;;;;;;40.67;37.00;;;;;-143.90;100.00;75761.47;4957249;28;101664;-75
2024/02/26 03:26:48;;;;;;;;;40.33;29.33;;;;;-143.90;100.00;75759.41;4959721;28;103211;-75
2024/02/26 03:29:14;;;;;;;;;32.00;24.33;;;;;-143.90;100.00;75755.28;4955585;28;103486;-74
2024/02/26 03:31:41;;;;;;;;;29.33;26.00;;;;;-143.90;100.00;75751.13;4958356;28;106166;-74
2024/02/26 03:34:08;;;;;;;;;38.67;36.67;;;;;-143.90;100.00;75759.41;4950242;28;101987;-75
2024/02/26 03:36:35;;;;;;;;;55.00;44.00;;;;;-143.90;100.00;75759.41;4956785;28;101760;-76
2024/02/26 03:39:07;;;;;;;;;63.00;44.67;;;;;-143.90;100.00;75759.41;4956913;28;111178;-77
2024/02/26 03:41:35;;;;;;;;;49.33;42.67;;;;;-143.90;100.00;75757.34;4958590;28;102297;-76
2024/02/26 03:44:02;;;;;;;;;67.67;50.00;;;;;-143.90;100.00;75749.06;4949867;28;101910;-74
2024/02/26 03:46:29;;;;;;;;;56.00;41.75;;;;;-143.90;100.00;75755.28;4961778;28;101807;-75
2024/02/26 03:48:55;;;;;;;;;72.75;57.00;;;;;-143.90;100.00;75767.69;4949862;28;103451;-76
2024/02/26 03:51:22;;;;;;;;;71.25;56.50;;;;;-143.90;100.00;75763.53;4953220;28;103824;-76
2024/02/26 03:53:49;;;;;;;;;76.25;58.50;;;;;-143.90;100.00;75775.94;4945722;28;101856;-76
2024/02/26 03:56:16;;;;;;;;;70.75;54.00;;;;;-143.90;100.00;75780.09;4965423;28;101565;-74
2024/02/26 03:58:43;;;;;;;;;67.67;44.67;;;;;-143.90;100.00;75780.09;4958733;28;103656;-77
2024/02/26 04:01:09;;;;;;;;;67.25;53.50;;;;;-143.90;100.00;75792.50;4960876;28;101756;-74
2024/02/26 04:03:36;;;;;;;;;62.75;51.75;;;;;-143.90;100.00;75788.34;4958416;28;101650;-74
2024/02/26 04:06:03;;;;;;;;;72.00;50.00;;;;;-143.90;100.00;75790.41;4953993;28;101597;-74
2024/02/26 04:08:30;;;;;;;;;63.67;51.33;;;;;-143.90;100.00;75780.09;4962818;28;103588;-74
2024/02/26 04:10:57;;;;;;;;;50.00;44.33;;;;;-143.90;100.00;75773.88;4963696;28;101883;-76
2024/02/26 04:13:24;;;;;;;;;52.67;41.00;;;;;-143.90;100.00;75771.81;4956614;28;102232;-75
2024/02/26 04:15:51;;;;;;;;;50.67;42.00;;;;;-143.90;100.00;75769.75;4917707;28;1173741;-75
2024/02/26 04:18:18;;;;;;;;;42.67;39.33;;;;;-143.90;100.00;75775.94;4957081;28;103412;-75
2024/02/26 04:20:45;;;;;;;;;51.33;40.33;;;;;-143.90;100.00;75780.09;4965188;28;101857;-74
2024/02/26 04:23:11;;;;;;;;;46.67;41.67;;;;;-143.90;100.00;75790.41;4957788;28;101753;-74
2024/02/26 04:25:38;;;;;;;;;59.33;44.67;;;;;-143.90;100.00;75798.69;4955675;28;101596;-74
2024/02/26 04:28:05;;;;;;;;;61.33;41.33;;;;;-143.90;100.00;75809.03;4959894;28;108109;-75
2024/02/26 04:30:31;;;;;;;;;35.00;30.00;;;;;-143.90;100.00;75800.75;4960223;28;102055;-75
2024/02/26 04:32:58;;;;;;;;;60.67;48.33;;;;;-143.90;100.00;75809.03;4962829;28;101677;-75
2024/02/26 04:35:25;;;;;;;;;69.25;53.25;;;;;-143.90;100.00;75821.44;4958979;28;102117;-75
2024/02/26 04:37:52;;;;;;;;;77.25;61.75;;;;;-143.90;100.00;75825.56;4955028;28;103761;-75
2024/02/26 04:40:19;;;;;;;;;68.50;55.75;;;;;-143.90;100.00;75819.38;4960660;28;102001;-75
2024/02/26 04:42:45;;;;;;;;;75.75;59.50;;;;;-143.90;100.00;75813.16;4959076;28;102076;-75
2024/02/26 04:45:12;;;;;;;;;79.00;60.00;;;;;-143.90;100.00;75813.16;4959058;28;104172;-74
2024/02/26 04:47:39;;;;;;;;;78.50;59.50;;;;;-143.90;100.00;75811.09;4959054;28;103363;-74
2024/02/26 04:50:06;;;;;;;;;80.50;60.25;;;;;-143.90;100.00;75813.16;4964859;28;101779;-75
2024/02/26 04:52:33;;;;;;;;;70.75;55.50;;;;;-143.90;100.00;75823.50;4957902;28;102528;-75
2024/02/26 04:55:00;;;;;;;;;81.25;62.00;;;;;-143.90;100.00;75827.63;4964952;28;101800;-75
2024/02/26 04:57:26;;;;;;;;;80.00;61.00;;;;;-143.90;100.00;75833.84;4949343;28;103154;-75
2024/02/26 04:59:53;;;;;;;;;78.25;59.00;;;;;-143.90;100.00;75833.84;4942944;28;101953;-75
2024/02/26 05:02:20;;;;;;;;;71.75;52.75;;;;;-143.90;100.00;75833.84;4961725;28;101664;-75
2024/02/26 05:04:47;;;;;;;;;74.25;53.75;;;;;-143.90;100.00;75833.84;4959954;28;101785;-75
2024/02/26 05:07:13;;;;;;;;;64.33;49.00;;;;;-143.90;100.00;75825.56;4955911;28;103549;-74
2024/02/26 05:09:41;;;;;;;;;76.00;52.33;;;;;-143.90;100.00;75829.72;4960628;28;101960;-74
2024/02/26 05:12:09;;;;;;;;;65.67;49.33;;;;;-143.90;100.00;75831.78;4954889;28;102464;-75
2024/02/26 05:14:36;;;;;;;;;58.67;47.00;;;;;-143.90;100.00;75821.44;4965935;28;101840;-75
2024/02/26 05:17:03;;;;;;;;;53.67;42.00;;;;;-143.90;100.00;75821.44;4956676;28;103526;-75
2024/02/26 05:19:30;;;;;;;;;45.33;39.00;;;;;-143.90;100.00;75821.44;4954475;28;101752;-74
2024/02/26 05:21:57;;;;;;;;;65.67;44.00;;;;;-143.90;100.00;75825.56;4957702;28;101895;-74
2024/02/26 05:24:23;;;;;;;;;49.00;42.33;;;;;-143.90;100.00;75833.84;4964452;28;101784;-74
2024/02/26 05:26:50;;;;;;;;;61.00;46.00;;;;;-143.90;100.00;75837.97;4957372;28;103729;-75
2024/02/26 05:29:17;;;;;;;;;57.00;42.33;;;;;-143.90;100.00;75825.56;4952849;28;101856;-74
2024/02/26 05:31:44;;;;;;;;;47.67;39.33;;;;;-143.90;100.00;75821.44;4950609;28;101392;-75
2024/02/26 05:34:10;;;;;;;;;55.67;44.33;;;;;-143.90;100.00;75821.44;4954714;28;103518;-75
2024/02/26 05:36:38;;;;;;;;;79.25;57.00;;;;;-143.90;100.00;75833.84;4960202;28;103461;-76
2024/02/26 05:39:05;;;;;;;;;81.75;60.75;;;;;-143.90;100.00;75837.97;4963677;28;102152;-75
2024/02/26 05:41:32;;;;;;;;;89.00;66.50;;;;;-143.90;100.00;75846.25;4943006;28;101861;-75
2024/02/26 05:43:59;;;;;;;;;82.25;64.75;;;;;-143.90;100.00;75840.03;4949030;28;101649;-75
2024/02/26 05:46:26;;;;;;;;;85.50;61.75;;;;;-143.90;100.00;75837.97;4948205;28;103441;-75
2024/02/26 05:48:54;;;;;;;;;82.25;63.25;;;;;-143.90;100.00;75829.72;4958773;28;103147;-75
2024/02/26 05:51:21;;;;;;;;;94.00;70.75;;;;;-143.90;100.00;75821.44;4934996;28;101636;-75
2024/02/26 05:53:53;;;;;;;;;91.00;66.50;;;;;-143.90;100.00;75817.31;4962601;28;101796;-75
2024/02/26 05:56:23;;;;;;;;;90.25;64.50;;;;;-143.90;100.00;75817.31;4963254;28;104351;-75
2024/02/26 05:58:51;;;;;;;;;82.25;59.25;;;;;-143.90;100.00;75804.91;4962240;28;101969;-75
2024/02/26 06:01:19;;;;;;;;;65.50;50.00;;;;;-143.90;100.00;75794.56;4945700;28;101791;-73
2024/02/26 06:03:46;;;;;;;;;52.33;44.00;;;;;-143.90;100.00;75782.16;4958705;28;101405;-74
2024/02/26 06:06:14;;;;;;;;;39.67;30.67;;;;;-143.90;100.00;75775.94;4961604;28;103484;-75
2024/02/26 06:08:42;;;;;;;;;42.67;36.67;;;;;-143.90;100.00;75771.81;4954147;28;102112;-75
2024/02/26 06:11:09;;;;;;;;;43.33;36.00;;;;;-143.90;100.00;75757.34;4958858;28;101872;-74
2024/02/26 06:13:36;;;;;;;;;63.00;49.67;;;;;-143.90;100.00;75767.69;4952289;28;105208;-74
2024/02/26 06:16:03;;;;;;;;;68.33;49.00;;;;;-143.90;100.00;75765.59;4956763;28;103542;-75
2024/02/26 06:18:30;;;;;;;;;63.00;44.00;;;;;-143.90;100.00;75763.53;4958464;28;101595;-75
2024/02/26 06:20:57;;;;;;;;;52.33;44.67;;;;;-143.90;100.00;75757.34;4954669;28;101683;-75
2024/02/26 06:23:24;;;;;;;;;47.67;41.00;;;;;-143.90;100.00;75759.41;4944709;28;101633;-75
2024/02/26 06:25:51;;;;;;;;;51.33;44.00;;;;;-143.90;100.00;75747.00;4955123;28;103580;-75
2024/02/26 06:28:18;;;;;;;;;54.00;45.00;;;;;-143.90;100.00;75730.47;4961259;28;102009;-74
2024/02/26 06:30:46;;;;;;;;;57.67;44.33;;;;;-143.90;100.00;75718.06;4955033;28;102100;-74
2024/02/26 06:33:14;;;;;;;;;47.33;40.33;;;;;-143.90;100.00;75674.63;4961293;28;102234;-74
2024/02/26 06:35:41;;;;;;;;;59.00;44.00;;;;;-143.90;100.00;75620.88;4957561;28;106983;-74
2024/02/26 06:38:09;;;;;;;;;60.67;45.67;;;;;-143.90;100.00;75540.22;4966688;28;101779;-74
2024/02/26 06:40:36;;;;;;;;;50.00;42.00;;;;;-143.90;100.00;75474.06;4960888;28;102100;-74
2024/02/26 06:43:02;;;;;;;;;53.33;43.33;;;;;-143.90;100.00;75399.63;4963096;28;102362;-73
2024/02/26 06:45:29;;;;;;;;;44.67;37.00;;;;;-143.90;100.00;75350.03;4949557;28;103505;-75
2024/02/26 06:47:56;;;;;;;;;41.00;35.00;;;;;-143.90;100.00;75319.00;4964660;28;101752;-73
2024/02/26 06:50:23;;;;;;;;;60.00;40.67;;;;;-143.90;100.00;75290.06;4964657;28;101669;-73
2024/02/26 06:52:49;;;;;;;;;51.33;39.67;;;;;-143.90;100.00;75281.78;4962742;28;102088;-73
2024/02/26 06:55:17;;;;;;;;;54.00;42.33;;;;;-143.90;100.00;75259.06;4958892;28;103493;-72
2024/02/26 06:57:43;;;;;;;;;37.33;32.67;;;;;-143.90;100.00;75246.66;4964322;28;101945;-72
2024/02/26 07:00:14;;;;;;;;;45.33;38.00;;;;;-143.90;100.00;75252.84;4947445;28;101455;-72
2024/02/26 07:02:41;;;;;;;;;39.67;35.67;;;;;-143.90;100.00;75236.31;4956998;28;101817;-74
2024/02/26 07:05:08;;;;;;;;;40.33;34.00;;;;;-143.90;100.00;75234.25;4955176;28;103470;-74
2024/02/26 07:07:36;;;;;;;;;41.00;37.00;;;;;-143.90;100.00;75221.84;4948405;28;103048;-74
2024/02/26 07:10:03;;;;;;;;;42.67;33.00;;;;;-143.90;100.00;75186.69;4963638;28;101795;-74
2024/02/26 07:12:30;;;;;;;;;37.67;26.67;;;;;-143.90;100.00;75151.53;4963924;28;102159;-75
2024/02/26 07:14:58;;;;;;;;;26.00;25.00;;;;;-143.90;100.00;75116.41;4962255;28;103518;-73
2024/02/26 07:17:25;;;;;;;;;24.25;22.50;;;;;-143.90;100.00;75093.66;4952350;28;101917;-74
2024/02/26 07:19:51;;;;;;;;;22.00;21.00;;;;;-143.90;100.00;75068.84;4961993;28;101973;-74
2024/02/26 07:22:18;;;;;;;;;24.00;20.75;;;;;-143.90;100.00;75041.97;4955185;28;101809;-73
2024/02/26 07:24:45;;;;;;;;;24.00;18.50;;;;;-143.90;100.00;75015.09;4944400;28;103416;-74
2024/02/26 07:27:12;;;;;;;;;25.00;21.00;;;;;-143.90;100.00;75000.63;4957787;28;101849;-74
2024/02/26 07:29:39;;;;;;;;;21.25;17.50;;;;;-143.90;100.00;74990.28;4958529;28;101775;-74
2024/02/26 07:32:06;;;;;;;;;29.00;25.00;;;;;-143.90;100.00;74990.28;4958798;28;101762;-75
2024/02/26 07:34:32;;;;;;;;;22.50;19.00;;;;;-143.90;100.00;74984.09;4959360;28;103702;-75
2024/02/26 07:36:59;;;;;;;;;28.25;22.75;;;;;-143.90;100.00;74982.03;4961776;28;103663;-75
2024/02/26 07:39:26;;;;;;;;;25.25;18.50;;;;;-143.90;100.00;74975.81;4953610;28;102129;-74
2024/02/26 07:41:53;;;;;;;;;36.75;25.75;;;;;-143.90;100.00;74977.88;4961574;28;101897;-74
2024/02/26 07:44:20;;;;;;;;;22.25;22.00;;;;;-143.90;100.00;74969.63;4953900;28;103548;-74
2024/02/26 07:46:47;;;;;;;;;25.75;22.50;;;;;-143.90;100.00;74961.34;4952026;28;101913;-74
2024/02/26 07:49:13;;;;;;;;;33.00;23.75;;;;;-143.90;100.00;74957.22;4947047;28;101793;-75
2024/02/26 07:51:41;;;;;;;;;31.00;26.50;;;;;-143.90;100.00;74951.00;4962612;28;101573;-74
2024/02/26 07:54:08;;;;;;;;;26.75;24.50;;;;;-143.90;100.00;74942.75;4956474;28;103160;-75
2024/02/26 07:56:34;;;;;;;;;22.50;21.00;;;;;-143.90;100.00;74928.28;4951452;28;101706;-74
2024/02/26 07:59:01;;;;;;;;;27.75;21.50;;;;;-143.90;100.00;74895.19;4952253;28;101408;-74
2024/02/26 08:01:28;;;;;;;;;24.75;22.00;;;;;-143.90;100.00;74866.25;4953069;28;101709;-74
2024/02/26 08:03:55;;;;;;;;;21.00;20.25;;;;;-143.90;100.00;74824.91;4957739;28;103346;-75
2024/02/26 08:06:23;;;;;;;;;26.75;21.75;;;;;-143.90;100.00;74795.97;4963725;28;101903;-75
2024/02/26 08:08:50;;;;;;;;;25.00;20.00;;;;;-143.90;100.00;74775.31;4962264;28;101448;-74
2024/02/26 08:11:17;;;;;;;;;25.25;21.75;;;;;-143.90;100.00;74758.75;4952775;28;105348;-74
2024/02/26 08:13:43;;;;;;;;;17.25;17.25;;;;;-143.90;100.00;74733.97;4941943;28;103588;-74
2024/02/26 08:16:10;;;;;;;;;22.00;16.75;;;;;-143.90;100.00;74709.16;4961689;28;101665;-75
2024/02/26 08:18:37;;;;;;;;;21.00;18.25;;;;;-143.90;100.00;74680.22;4965763;28;101614;-75
2024/02/26 08:21:04;;;;;;;;;19.50;18.50;;;;;-143.90;100.00;74669.88;4954608;28;101799;-74
2024/02/26 08:23:31;;;;;;;;;18.75;14.75;;;;;-143.90;100.00;74649.19;4954688;28;103342;-74
2024/02/26 08:25:58;;;;;;;;;14.75;14.00;;;;;-143.90;100.00;74626.47;4964532;28;102016;-74
2024/02/26 08:28:25;;;;;;;;;18.00;15.00;;;;;-143.90;100.00;74624.41;4960366;28;102138;-74
2024/02/26 08:30:51;;;;;;;;;17.75;16.00;;;;;-143.90;100.00;74622.34;4961608;28;101919;-75
2024/02/26 08:33:18;;;;;;;;;20.50;18.25;;;;;-143.90;100.00;74616.13;4944955;28;104327;-74
2024/02/26 08:35:45;;;;;;;;;18.00;15.75;;;;;-143.90;100.00;74603.72;4964086;28;104877;-74
2024/02/26 08:38:12;;;;;;;;;19.75;17.50;;;;;-143.90;100.00;74597.53;5093189;23;101938;-74
2024/02/26 08:40:38;;;;;;;;;13.00;10.25;;;;;-143.90;100.00;74589.25;4962767;28;102124;-74
2024/02/26 08:43:08;;;;;;;;;20.50;18.25;;;;;-143.90;100.00;74605.78;4948987;28;109849;-74
2024/02/26 08:48:10;;;;;;;;;17.25;14.75;;;;;-143.90;100.00;74589.25;5000132;23;102134;-74
2024/02/26 08:50:37;;;;;;;;;20.75;18.00;;;;;-143.90;100.00;74568.59;4939042;28;102024;-74
2024/02/26 08:53:04;;;;;;;;;19.00;16.25;;;;;-143.90;100.00;74556.19;4940233;28;104337;-74
2024/02/26 08:55:33;;;;;;;;;19.50;16.00;;;;;-143.90;100.00;74529.31;4930764;28;102399;-74
2024/02/26 08:58:00;;;;;;;;;18.25;16.00;;;;;-143.90;100.00;74512.78;4941805;28;102862;-74
2024/02/26 09:00:27;;;;;;;;;22.50;17.50;;;;;-143.90;100.00;74477.63;4941769;28;102006;-74
2024/02/26 09:02:53;;;;;;;;;16.00;14.00;;;;;-143.90;100.00;74456.97;4924143;28;104195;-75
2024/02/26 09:05:21;;;;;;;;;12.50;10.00;;;;;-143.90;100.00;74438.38;4937987;28;102664;-75
2024/02/26 09:07:48;;;;;;;;;8.00;6.00;;;;;-143.90;100.00;74405.28;4944648;28;102355;-74
2024/02/26 09:10:14;;;;;;;;;8.75;7.25;;;;;-143.90;100.00;74401.16;4944899;28;102337;-74
2024/02/26 09:12:41;;;;;;;;;8.75;7.75;;;;;-143.90;100.00;74399.09;4939988;28;105512;-74
2024/02/26 09:15:08;;;;;;;;;6.75;5.00;;;;;-143.90;72.21;74374.28;4946930;28;102151;-74
2024/02/26 09:17:35;;;;;;;;;5.75;4.75;;;;;-143.90;69.65;74359.81;4929966;28;101986;-74
2024/02/26 09:20:02;;;;;;;;;4.00;3.50;;;;;-143.90;69.11;74341.22;4940892;28;102352;-73
2024/02/26 09:22:29;;;;;;;;;10.00;6.00;;;;;-143.90;68.14;74320.53;4940992;28;104019;-74
2024/02/26 09:24:56;;;;;;;;;3.25;2.00;;;;;-143.90;67.25;74301.94;4938026;28;102201;-73
2024/02/26 09:27:23;;;;;;;;;2.75;2.25;;;;;-143.90;64.79;74275.06;4938600;28;102026;-72
2024/02/26 09:29:50;;;;;;;;;10.75;8.50;;;;;-143.90;65.08;74287.47;4933347;28;102287;-72
2024/02/26 09:32:17;;;;;;;;;5.25;4.25;;;;;-143.90;66.57;74258.53;4932630;28;104159;-72
2024/02/26 09:34:44;;;;;;;;;5.50;3.50;;;;;-143.90;63.42;74242.00;4939803;28;104101;-72
2024/02/26 09:37:12;;;;;;;;;4.75;4.00;;;;;-143.90;64.75;74242.00;4940287;28;102838;-73
2024/02/26 09:39:47;;;;;;;;;3.00;3.00;;;;;-143.90;63.06;74225.47;4940778;28;102296;-72
2024/02/26 09:42:19;;;;;;;;;2.00;2.00;;;;;-143.90;63.82;74196.53;4937695;28;103959;-73
2024/02/26 09:44:51;;;;;;;;;2.00;2.00;;;;;-143.90;62.08;74200.66;4943416;28;105908;-72
2024/02/26 09:47:20;;;;;;;;;2.25;2.25;;;;;-143.90;59.54;74194.47;4930359;28;103995;-73
2024/02/26 09:49:48;;;;;;;;;2.25;2.25;;;;;-143.90;61.26;74180.00;4940740;28;102365;-73
2024/02/26 09:52:16;;;;;;;;;4.00;4.00;;;;;-143.90;61.14;74186.19;4944698;28;104166;-72
2024/02/26 09:54:47;;;;;;;;;5.00;5.00;;;;;-143.90;62.27;74186.19;4935778;28;102474;-72
2024/02/26 09:57:16;;;;;;;;;2.00;2.00;;;;;-143.90;63.08;74190.31;4936496;28;102814;-73
2024/02/26 09:59:45;;;;;;;;;4.00;3.25;;;;;-143.90;62.38;74163.47;4945145;28;102125;-72
2024/02/26 10:02:13;;;;;;;;;6.00;4.00;;;;;-143.90;62.40;74188.25;4943148;28;107879;-72
2024/02/26 10:04:41;;;;;;;;;3.25;2.75;;;;;-143.90;61.55;74188.25;4937706;28;102257;-73
2024/02/26 10:07:13;;;;;;;;;4.00;4.00;;;;;-143.90;61.94;74217.19;4942310;28;103104;-73
2024/02/26 10:09:40;;;;;;;;;2.75;2.25;;;;;-143.90;61.70;74188.25;4940559;28;102031;-73
2024/02/26 10:12:10;;;;;;;;;3.25;2.00;;;;;-143.90;61.03;74140.72;4925660;28;104453;-72
2024/02/26 10:14:37;;;;;;;;;2.25;2.25;;;;;-143.90;60.77;74113.84;4941278;28;102254;-73
2024/02/26 10:17:08;;;;;;;;;2.00;2.00;;;;;-143.90;59.93;74097.31;4940609;28;102290;-74
2024/02/26 10:19:35;;;;;;;;;3.00;3.00;;;;;-143.90;58.37;74095.25;4938686;28;102071;-73
2024/02/26 10:22:05;;;;;;;;;3.00;3.00;;;;;-143.90;60.09;74134.53;4941198;28;103948;-73
2024/02/26 10:24:34;;;;;;;;;2.75;2.75;;;;;-143.90;60.44;74120.06;4944045;28;101969;-73
2024/02/26 10:27:02;;;;;;;;;3.00;3.00;;;;;-143.90;59.27;74093.19;4939021;28;102575;-73
2024/02/26 10:29:29;;;;;;;;;2.75;2.00;;;;;-143.90;58.80;74089.06;4934972;28;101927;-72
2024/02/26 10:31:56;;;;;;;;;2.75;2.75;;;;;-143.90;58.69;74064.25;4937429;28;103342;-73
2024/02/26 10:34:23;;;;;;;;;4.25;2.75;;;;;-143.90;58.90;74080.78;4939126;28;102109;-73
2024/02/26 10:36:50;;;;;;;;;2.00;2.00;;;;;-143.90;60.10;74068.38;4939813;28;103631;-73
2024/02/26 10:39:20;;;;;;;;;2.50;2.00;;;;;-143.90;58.74;74039.44;4934719;28;102198;-73
2024/02/26 10:41:48;;;;;;;;;1.00;1.00;;;;;-143.90;58.98;74072.50;4957936;28;105673;-73
2024/02/26 10:44:14;;;;;;;;;3.25;2.75;;;;;-143.90;58.50;74043.59;4952962;28;101901;-73
2024/02/26 10:46:47;;;;;;;;;2.75;2.50;;;;;-143.90;60.04;74047.72;4954286;28;101948;-73
2024/02/26 10:49:17;;;;;;;;;1.50;1.50;;;;;-143.90;59.74;74029.13;4953744;28;102098;-73
2024/02/26 10:51:48;;;;;;;;;1.00;1.00;;;;;-143.90;56.95;74031.19;4948387;28;108176;-73